Time;durP1;ratioP1;P1;durP2;ratioP2;P2;SDS_P1;SDS_P2;PMS_P1;PMS_P2;Temp;Humidity;BMP_temperature;BMP_pressure;BME280_temperature;BME280_humidity;BME280_pressure;Samples;Min_cycle;Max_cycle;Signal;HPM_P1;HPM_P2
2021/12/19 00:01:19;;;;;;;;;;;;;;;17.81;51.30;103565.69;5044681;28;19959;-46
2021/12/19 00:09:09;;;;;;;;;;;;;;;17.78;51.46;103550.59;5045571;28;19992;-45
2021/12/19 00:11:34;;;;;;;;;;;;;;;17.77;51.30;103553.41;5043711;28;19913;-46
2021/12/19 00:14:00;;;;;;;;;;;;;;;17.71;51.44;103550.09;5045570;28;19917;-49
2021/12/19 00:16:25;;;;;;;;;;;;;;;17.76;51.44;103546.28;5044471;28;19925;-48
2021/12/19 00:18:52;;;;;;;;;;;;;;;17.74;51.47;103547.22;5045213;28;19925;-49
2021/12/19 00:21:18;;;;;;;;;;;;;;;17.74;51.42;103543.69;5045556;28;19909;-48
2021/12/19 00:23:44;;;;;;;;;;;;;;;17.74;51.54;103547.22;5045195;28;20023;-49
2021/12/19 00:26:09;;;;;;;;;;;;;;;17.73;51.42;103540.09;5045185;28;19969;-48
2021/12/19 00:28:34;;;;;;;;;;;;;;;17.74;51.41;103532.91;5045114;28;19920;-50
2021/12/19 00:31:00;;;;;;;;;;;;;;;17.72;51.23;103535.69;5044728;28;19978;-43
2021/12/19 00:33:25;;;;;;;;;;;;;;;17.73;51.52;103531.16;5045270;28;20381;-46
2021/12/19 00:35:50;;;;;;;;;;;;;;;17.71;51.46;103530.38;5045000;28;19924;-47
2021/12/19 00:38:16;;;;;;;;;;;;;;;17.70;51.42;103524.13;5045160;28;19948;-49
2021/12/19 00:40:42;;;;;;;;;;;;;;;17.70;51.33;103523.28;5044739;28;19920;-50
2021/12/19 00:43:11;;;;;;;;;;;;;;;17.69;51.44;103517.03;5043893;28;20020;-48
2021/12/19 00:45:39;;;;;;;;;;;;;;;17.68;51.44;103518.00;5044915;28;19936;-49
2021/12/19 00:48:05;;;;;;;;;;;;;;;17.69;51.25;103524.25;5044465;28;19913;-48
2021/12/19 00:50:31;;;;;;;;;;;;;;;17.68;51.45;103515.31;5044686;28;19921;-47
2021/12/19 00:52:56;;;;;;;;;;;;;;;17.68;51.38;103514.44;5044823;28;19917;-49
2021/12/19 00:55:22;;;;;;;;;;;;;;;17.67;51.32;103510.00;5045025;28;20327;-47
2021/12/19 00:57:47;;;;;;;;;;;;;;;17.66;51.43;103503.75;5044551;28;19917;-45
2021/12/19 01:00:14;;;;;;;;;;;;;;;17.66;51.31;103506.44;5044604;28;19920;-48
2021/12/19 01:02:39;;;;;;;;;;;;;;;17.65;51.25;103493.09;5044123;28;19980;-44
2021/12/19 01:05:04;;;;;;;;;;;;;;;17.64;51.41;103494.94;5044695;28;19913;-50
2021/12/19 01:07:30;;;;;;;;;;;;;;;17.64;51.40;103494.09;5044573;28;19921;-49
2021/12/19 01:09:55;;;;;;;;;;;;;;;17.64;51.31;103496.78;5044643;28;19945;-47
2021/12/19 01:12:20;;;;;;;;;;;;;;;17.63;51.35;103498.59;5044270;28;19917;-49
2021/12/19 01:14:45;;;;;;;;;;;;;;;17.61;51.24;103487.06;5044315;28;19969;-49
2021/12/19 01:17:10;;;;;;;;;;;;;;;17.61;51.29;103491.56;5043277;28;19917;-51
2021/12/19 01:19:35;;;;;;;;;;;;;;;17.61;51.17;103487.06;5044094;28;19920;-49
2021/12/19 01:22:01;;;;;;;;;;;;;;;17.60;51.22;103485.34;5044191;28;20398;-47
2021/12/19 01:24:26;;;;;;;;;;;;;;;17.59;51.29;103486.31;5043367;28;19980;-44
2021/12/19 01:26:51;;;;;;;;;;;;;;;17.60;51.35;103481.78;5042459;28;19920;-46
2021/12/19 01:29:16;;;;;;;;;;;;;;;17.59;51.32;103480.06;5042847;28;19984;-47
2021/12/19 01:31:42;;;;;;;;;;;;;;;17.59;51.28;103482.75;5043649;28;19984;-50
2021/12/19 01:34:07;;;;;;;;;;;;;;;17.58;51.29;103481.00;5043985;28;20005;-47
2021/12/19 01:36:32;;;;;;;;;;;;;;;17.57;51.30;103474.75;5044163;28;19988;-45
2021/12/19 01:38:57;;;;;;;;;;;;;;;17.57;51.26;103480.13;5043806;28;19952;-47
2021/12/19 01:41:23;;;;;;;;;;;;;;;17.56;51.29;103474.88;5043669;28;19919;-45
2021/12/19 01:43:48;;;;;;;;;;;;;;;17.56;50.99;103483.81;5044045;28;19920;-45
2021/12/19 01:46:13;;;;;;;;;;;;;;;17.56;51.24;103477.56;5043155;28;19913;-48
2021/12/19 01:48:38;;;;;;;;;;;;;;;17.55;51.28;103467.78;5043636;28;19978;-48
2021/12/19 01:51:03;;;;;;;;;;;;;;;17.55;51.33;103473.16;5043784;28;19973;-45
2021/12/19 01:53:29;;;;;;;;;;;;;;;17.54;51.17;103476.78;5043309;28;19988;-50
2021/12/19 01:55:55;;;;;;;;;;;;;;;17.53;51.13;103464.28;5043334;28;19947;-47
2021/12/19 01:58:20;;;;;;;;;;;;;;;17.52;51.13;103457.19;5043484;28;19921;-48
2021/12/19 02:00:52;;;;;;;;;;;;;;;17.53;51.14;103456.22;5043383;28;20040;-49
2021/12/19 02:03:18;;;;;;;;;;;;;;;17.52;51.21;103455.38;5041953;28;20350;-46
2021/12/19 02:05:43;;;;;;;;;;;;;;;17.52;51.25;103459.88;5043522;28;19913;-48
2021/12/19 02:08:09;;;;;;;;;;;;;;;17.50;51.18;103449.22;5042182;28;20404;-49
2021/12/19 02:10:34;;;;;;;;;;;;;;;17.50;51.28;103451.94;5043112;28;19913;-46
2021/12/19 02:13:00;;;;;;;;;;;;;;;17.49;51.34;103445.66;5042326;28;19935;-47
2021/12/19 02:15:27;;;;;;;;;;;;;;;17.49;51.14;103444.78;5043129;28;20047;-47
2021/12/19 02:17:53;;;;;;;;;;;;;;;17.48;51.02;103441.25;5041419;28;19984;-45
2021/12/19 02:20:19;;;;;;;;;;;;;;;17.48;51.37;103443.94;5041755;28;19956;-49
2021/12/19 02:22:44;;;;;;;;;;;;;;;17.48;51.21;103441.25;5039682;28;19920;-51
2021/12/19 02:25:09;;;;;;;;;;;;;;;17.47;51.23;103428.75;5043086;28;19928;-47
2021/12/19 02:27:35;;;;;;;;;;;;;;;17.46;51.26;103435.13;5042804;28;20080;-47
2021/12/19 02:30:00;;;;;;;;;;;;;;;17.45;51.26;103424.44;5043031;28;19917;-49
2021/12/19 02:32:27;;;;;;;;;;;;;;;17.43;51.32;103424.53;5042146;28;19917;-48
2021/12/19 02:34:55;;;;;;;;;;;;;;;17.43;51.08;103421.84;5042955;28;19920;-47
2021/12/19 02:37:53;;;;;;;;;;;;;;;17.42;51.27;103416.59;5043138;28;20027;-48
2021/12/19 02:48:10;;;;;;;;;;;;;;;17.42;51.19;103417.44;5042719;28;19928;-50
2021/12/19 02:48:26;;;;;;;;;;;;;;;17.42;51.19;103412.06;5042832;28;20016;-44
2021/12/19 02:50:53;;;;;;;;;;;;;;;17.42;51.09;103403.13;5042594;28;19920;-47
2021/12/19 02:53:32;;;;;;;;;;;;;;;17.42;50.96;103405.81;5042924;28;20024;-45
2021/12/19 02:55:58;;;;;;;;;;;;;;;17.39;51.03;103401.50;5042394;28;19924;-43
2021/12/19 02:58:23;;;;;;;;;;;;;;;17.40;51.09;103402.34;5041527;28;19917;-46
2021/12/19 03:00:49;;;;;;;;;;;;;;;17.39;51.00;103401.50;5042428;28;19960;-44
2021/12/19 03:03:14;;;;;;;;;;;;;;;17.39;51.17;103392.56;5042495;28;19913;-49
2021/12/19 03:05:39;;;;;;;;;;;;;;;17.39;51.20;103398.81;5057809;28;19913;-45
2021/12/19 03:08:07;;;;;;;;;;;;;;;17.38;51.04;103390.84;5042817;28;19917;-47
2021/12/19 03:18:28;;;;;;;;;;;;;;;17.35;51.11;103365.00;5042281;28;19924;-45
2021/12/19 03:20:53;;;;;;;;;;;;;;;17.37;50.91;103367.56;5026766;28;19985;-48
2021/12/19 03:23:18;;;;;;;;;;;;;;;17.36;50.96;103365.88;5037922;28;19917;-49
2021/12/19 03:25:43;;;;;;;;;;;;;;;17.35;50.91;103361.44;5042115;28;19917;-47
2021/12/19 03:28:09;;;;;;;;;;;;;;;17.34;51.18;103355.22;5042574;28;19962;-46
2021/12/19 03:30:35;;;;;;;;;;;;;;;17.35;51.07;103359.63;5042098;28;19913;-48
2021/12/19 03:33:00;;;;;;;;;;;;;;;17.34;51.01;103349.84;5042048;28;19924;-44
2021/12/19 03:35:27;;;;;;;;;;;;;;;17.33;51.13;103348.13;5042274;28;19913;-46
2021/12/19 03:37:52;;;;;;;;;;;;;;;17.33;50.91;103348.13;5042535;28;19918;-49
2021/12/19 03:40:22;;;;;;;;;;;;;;;17.32;51.08;103343.69;5042373;28;19936;-47
2021/12/19 03:42:48;;;;;;;;;;;;;;;17.31;50.93;103339.28;5042490;28;19913;-46
2021/12/19 03:45:15;;;;;;;;;;;;;;;17.32;51.03;103332.06;5042400;28;19920;-48
2021/12/19 03:47:40;;;;;;;;;;;;;;;17.31;50.86;103328.50;5044758;28;19921;-47
2021/12/19 03:50:07;;;;;;;;;;;;;;;17.31;51.02;103327.66;5045822;28;20292;-48
2021/12/19 03:52:32;;;;;;;;;;;;;;;17.31;50.94;103330.34;5045931;28;19913;-49
2021/12/19 03:54:57;;;;;;;;;;;;;;;17.30;51.14;103325.94;5045869;28;19920;-47
2021/12/19 03:57:23;;;;;;;;;;;;;;;17.29;50.95;103322.38;5045734;28;19984;-45
2021/12/19 03:59:49;;;;;;;;;;;;;;;17.30;51.08;103323.25;5045609;28;19920;-47
2021/12/19 04:02:22;;;;;;;;;;;;;;;17.29;50.85;103314.31;5043917;28;19917;-49
2021/12/19 04:04:48;;;;;;;;;;;;;;;17.28;51.11;103317.09;5035690;28;20016;-48
2021/12/19 04:07:13;;;;;;;;;;;;;;;17.28;51.09;103317.94;5025959;28;19920;-46
2021/12/19 04:09:38;;;;;;;;;;;;;;;17.27;51.04;103312.69;5025733;28;19913;-47
2021/12/19 04:12:03;;;;;;;;;;;;;;;17.27;51.10;103320.75;5025784;28;19913;-44
2021/12/19 04:14:28;;;;;;;;;;;;;;;17.26;50.82;103305.59;5027944;28;19920;-48
2021/12/19 04:16:54;;;;;;;;;;;;;;;17.25;50.88;103312.78;5044477;28;19917;-45
2021/12/19 04:19:20;;;;;;;;;;;;;;;17.26;51.03;103305.59;5045180;28;19920;-49
2021/12/19 04:21:45;;;;;;;;;;;;;;;17.24;50.93;103301.16;5045585;28;19917;-46
2021/12/19 04:24:11;;;;;;;;;;;;;;;17.23;50.85;103296.75;5045410;28;19917;-46
2021/12/19 04:26:36;;;;;;;;;;;;;;;17.24;51.13;103295.78;5044905;28;20373;-48
2021/12/19 04:29:01;;;;;;;;;;;;;;;17.23;51.02;103293.19;5045157;28;19988;-49
2021/12/19 04:31:26;;;;;;;;;;;;;;;17.23;51.05;103290.50;5044603;28;19987;-46
2021/12/19 04:33:51;;;;;;;;;;;;;;;17.21;50.98;103290.63;5045204;28;20440;-49
2021/12/19 04:36:24;;;;;;;;;;;;;;;17.21;51.12;103296.00;5045157;28;19980;-47
2021/12/19 04:39:19;;;;;;;;;;;;;;;17.21;50.99;103289.75;5045235;28;19917;-43
2021/12/19 04:52:42;;;;;;;;;;;;;;;17.19;50.91;103297.03;5045090;28;20033;-44
2021/12/19 04:57:50;;;;;;;;;;;;;;;17.17;50.94;103294.47;5049232;28;19917;-47
2021/12/19 05:00:29;;;;;;;;;;;;;;;17.18;50.81;103287.25;5044802;28;19920;-45
2021/12/19 05:03:03;;;;;;;;;;;;;;;17.18;50.92;103298.00;5051207;28;19913;-47
2021/12/19 05:16:24;;;;;;;;;;;;;;;17.15;50.94;103287.44;5040742;28;19932;-47
2021/12/19 05:18:51;;;;;;;;;;;;;;;17.16;50.85;103289.16;5044100;28;19921;-46
2021/12/19 05:21:24;;;;;;;;;;;;;;;17.15;50.92;103292.81;5043564;28;21278;-47
2021/12/19 05:23:52;;;;;;;;;;;;;;;17.14;50.93;103283.91;5044399;28;19913;-50
2021/12/19 05:26:17;;;;;;;;;;;;;;;17.14;51.01;103280.34;5044036;28;19913;-47
2021/12/19 05:28:42;;;;;;;;;;;;;;;17.14;50.98;103283.03;5044064;28;19913;-47
2021/12/19 05:31:08;;;;;;;;;;;;;;;17.11;51.08;103285.91;5043666;28;19920;-46
2021/12/19 05:33:34;;;;;;;;;;;;;;;17.12;50.89;103285.84;5044268;28;19955;-46
2021/12/19 05:46:43;;;;;;;;;;;;;;;17.09;51.00;103269.03;5043254;28;19913;-44
2021/12/19 05:49:08;;;;;;;;;;;;;;;17.09;50.82;103269.03;5043854;28;19917;-46
2021/12/19 05:51:34;;;;;;;;;;;;;;;17.09;50.98;103274.41;5043860;28;20538;-46
2021/12/19 05:54:00;;;;;;;;;;;;;;;17.08;50.84;103267.31;5043881;28;19917;-44
2021/12/19 05:56:25;;;;;;;;;;;;;;;17.08;50.95;103264.63;5043331;28;19913;-44
2021/12/19 05:58:50;;;;;;;;;;;;;;;17.07;51.04;103262.88;5043361;28;19932;-47
2021/12/19 06:01:15;;;;;;;;;;;;;;;17.07;50.99;103260.19;5043021;28;19936;-46
2021/12/19 06:03:40;;;;;;;;;;;;;;;17.05;50.81;103259.44;5042334;28;19917;-47
2021/12/19 06:06:06;;;;;;;;;;;;;;;17.05;50.92;103265.69;5043412;28;19913;-43
2021/12/19 06:08:31;;;;;;;;;;;;;;;17.05;50.83;103262.13;5042783;28;19920;-48
2021/12/19 06:10:56;;;;;;;;;;;;;;;17.04;51.00;103253.22;5042163;28;19917;-47
2021/12/19 06:13:21;;;;;;;;;;;;;;;17.03;50.83;103253.28;5042779;28;19913;-44
2021/12/19 06:15:50;;;;;;;;;;;;;;;17.02;50.89;103249.75;5041358;28;19945;-45
2021/12/19 06:18:15;;;;;;;;;;;;;;;17.02;50.93;103256.94;5040881;28;19928;-47
2021/12/19 06:20:41;;;;;;;;;;;;;;;16.91;51.14;103223.59;5042365;28;19913;-45
2021/12/19 06:23:08;;;;;;;;;;;;;;;17.01;50.93;103252.53;5042542;28;19981;-46
2021/12/19 06:25:33;;;;;;;;;;;;;;;16.99;51.08;103240.06;5042041;28;19931;-45
2021/12/19 06:27:58;;;;;;;;;;;;;;;17.00;51.01;103243.63;5042484;28;19964;-44
2021/12/19 06:30:23;;;;;;;;;;;;;;;16.99;51.15;103244.56;5042465;28;20020;-45
2021/12/19 06:32:49;;;;;;;;;;;;;;;16.99;50.98;103233.81;5041597;28;19913;-46
2021/12/19 06:35:18;;;;;;;;;;;;;;;16.98;51.07;103224.03;5042227;28;19917;-46
2021/12/19 06:37:44;;;;;;;;;;;;;;;16.97;51.24;103228.53;5057231;28;19917;-47
2021/12/19 06:40:10;;;;;;;;;;;;;;;16.97;51.19;103222.31;5042296;28;19985;-44
2021/12/19 06:42:35;;;;;;;;;;;;;;;16.96;51.13;103226.81;5042123;28;19913;-49
2021/12/19 06:45:01;;;;;;;;;;;;;;;16.97;51.46;103228.53;5042089;28;19917;-47
2021/12/19 06:47:26;;;;;;;;;;;;;;;16.98;51.52;103229.41;5041586;28;20389;-48
2021/12/19 06:49:51;;;;;;;;;;;;;;;16.98;51.69;103227.56;5042082;28;19913;-48
2021/12/19 06:52:16;;;;;;;;;;;;;;;17.00;51.70;103227.50;5042237;28;19983;-45
2021/12/19 06:54:41;;;;;;;;;;;;;;;17.01;51.73;103231.03;5042043;28;19917;-44
2021/12/19 06:57:07;;;;;;;;;;;;;;;17.01;51.64;103225.66;5041772;28;19936;-45
2021/12/19 06:59:32;;;;;;;;;;;;;;;17.01;51.67;103231.91;5042158;28;19945;-45
2021/12/19 07:01:57;;;;;;;;;;;;;;;17.02;51.78;103233.63;5041574;28;19914;-45
2021/12/19 07:04:22;;;;;;;;;;;;;;;17.03;51.75;103232.66;5042331;28;19917;-46
2021/12/19 07:06:47;;;;;;;;;;;;;;;17.03;51.88;103227.28;5042148;28;19920;-45
2021/12/19 07:09:12;;;;;;;;;;;;;;;17.03;51.80;103223.72;5042056;28;19913;-45
2021/12/19 07:11:38;;;;;;;;;;;;;;;17.04;51.75;103226.34;5041833;28;19914;-48
2021/12/19 07:14:03;;;;;;;;;;;;;;;17.04;51.87;103223.66;5042135;28;20031;-45
2021/12/19 07:16:28;;;;;;;;;;;;;;;17.05;52.04;103228.06;5041210;28;19931;-48
2021/12/19 07:18:53;;;;;;;;;;;;;;;17.05;52.05;103225.38;5041585;28;19985;-45
2021/12/19 07:21:18;;;;;;;;;;;;;;;17.06;51.93;103226.22;5043049;28;19913;-46
2021/12/19 07:23:43;;;;;;;;;;;;;;;16.93;51.96;103205.53;5045916;28;20021;-47
2021/12/19 07:26:08;;;;;;;;;;;;;;;17.06;51.89;103224.41;5045727;28;19913;-47
2021/12/19 07:28:34;;;;;;;;;;;;;;;17.07;51.96;103227.94;5044531;28;19913;-49
2021/12/19 07:30:59;;;;;;;;;;;;;;;17.08;51.99;103225.19;5045507;28;19960;-48
2021/12/19 07:33:24;;;;;;;;;;;;;;;17.09;52.03;103223.34;5045363;28;19920;-47
2021/12/19 07:35:50;;;;;;;;;;;;;;;17.09;52.04;103217.97;5045575;28;19967;-46
2021/12/19 07:38:24;;;;;;;;;;;;;;;17.08;52.13;103216.25;5045935;28;19932;-48
2021/12/19 07:40:50;;;;;;;;;;;;;;;17.08;52.03;103210.88;5043679;28;19921;-48
2021/12/19 07:43:15;;;;;;;;;;;;;;;17.09;52.02;103210.78;5045467;28;19917;-50
2021/12/19 07:45:41;;;;;;;;;;;;;;;17.09;52.16;103208.06;5044945;28;19928;-49
2021/12/19 07:48:06;;;;;;;;;;;;;;;17.12;52.01;103205.19;5044226;28;19949;-47
2021/12/19 07:50:31;;;;;;;;;;;;;;;17.15;52.23;103213.03;5044443;28;19963;-47
2021/12/19 07:52:56;;;;;;;;;;;;;;;17.18;52.21;103210.16;5045086;28;19924;-51
2021/12/19 07:55:22;;;;;;;;;;;;;;;17.19;52.15;103206.50;5045475;28;19935;-47
2021/12/19 07:57:47;;;;;;;;;;;;;;;17.20;51.95;103194.81;5038598;28;19917;-47
2021/12/19 08:00:13;;;;;;;;;;;;;;;17.23;52.09;103196.41;5044225;28;19913;-47
2021/12/19 08:02:38;;;;;;;;;;;;;;;17.26;52.02;103196.22;5044182;28;19913;-43
2021/12/19 08:05:04;;;;;;;;;;;;;;;17.27;52.02;103194.38;5045113;28;19914;-46
2021/12/19 08:07:30;;;;;;;;;;;;;;;17.28;52.12;103196.97;5045102;28;19920;-46
2021/12/19 08:12:33;;;;;;;;;;;;;;;17.31;52.09;103201.28;5051524;28;20004;-40
2021/12/19 08:14:58;;;;;;;;;;;;;;;17.31;52.20;103188.69;5059856;28;19921;-44
2021/12/19 08:17:23;;;;;;;;;;;;;;;17.32;51.86;103190.41;5041338;28;19965;-49
2021/12/19 08:19:49;;;;;;;;;;;;;;;17.33;52.07;103192.16;5044285;28;19940;-46
2021/12/19 08:22:14;;;;;;;;;;;;;;;17.33;52.16;103186.78;5044921;28;19936;-45
2021/12/19 08:24:41;;;;;;;;;;;;;;;17.34;52.10;103180.44;5044399;28;19992;-45
2021/12/19 08:27:06;;;;;;;;;;;;;;;17.36;51.91;103181.16;5044642;28;19967;-46
2021/12/19 08:29:31;;;;;;;;;;;;;;;17.37;51.90;103184.72;5043727;28;19917;-47
2021/12/19 08:31:56;;;;;;;;;;;;;;;17.37;52.00;103182.03;5043207;28;20378;-43
2021/12/19 08:34:21;;;;;;;;;;;;;;;17.38;51.84;103190.03;5044273;28;19924;-44
2021/12/19 08:36:46;;;;;;;;;;;;;;;17.38;51.75;103184.63;5044487;28;19936;-48
2021/12/19 08:39:12;;;;;;;;;;;;;;;17.38;51.82;103179.25;5044297;28;19977;-46
2021/12/19 08:41:37;;;;;;;;;;;;;;;17.39;51.81;103178.28;5044319;28;20011;-47
2021/12/19 08:44:02;;;;;;;;;;;;;;;17.39;51.63;103172.91;5044351;28;20468;-48
2021/12/19 08:46:31;;;;;;;;;;;;;;;17.39;51.58;103175.59;5044123;28;19944;-46
2021/12/19 08:48:56;;;;;;;;;;;;;;;17.40;51.55;103166.56;5044422;28;19914;-47
2021/12/19 08:51:22;;;;;;;;;;;;;;;17.41;51.71;103170.09;5044670;28;20012;-47
2021/12/19 08:53:47;;;;;;;;;;;;;;;17.41;51.70;103170.97;5045013;28;20357;-47
2021/12/19 08:56:12;;;;;;;;;;;;;;;17.41;51.51;103168.28;5044399;28;20405;-46
2021/12/19 08:58:37;;;;;;;;;;;;;;;17.41;51.37;103165.59;5044411;28;19953;-47
2021/12/19 09:01:02;;;;;;;;;;;;;;;17.41;51.33;103165.59;5044162;28;19913;-46
2021/12/19 09:03:28;;;;;;;;;;;;;;;17.41;51.54;103165.59;5044197;28;19913;-43
2021/12/19 09:05:54;;;;;;;;;;;;;;;17.42;51.46;103164.66;5044267;28;20017;-46
2021/12/19 09:08:19;;;;;;;;;;;;;;;17.42;51.27;103167.34;5043956;28;19917;-48
2021/12/19 09:10:44;;;;;;;;;;;;;;;17.43;51.21;103169.06;5043442;28;19921;-46
2021/12/19 09:13:09;;;;;;;;;;;;;;;17.44;51.42;103170.75;5043872;28;19928;-48
2021/12/19 09:15:34;;;;;;;;;;;;;;;17.45;51.30;103174.31;5043451;28;19921;-46
2021/12/19 09:18:00;;;;;;;;;;;;;;;17.45;51.53;103175.16;5042824;28;20346;-46
2021/12/19 09:20:25;;;;;;;;;;;;;;;17.47;51.52;103184.00;5043284;28;19925;-46
2021/12/19 09:22:51;;;;;;;;;;;;;;;17.49;51.67;103174.00;5040944;28;19917;-48
2021/12/19 09:25:16;;;;;;;;;;;;;;;17.48;51.59;103169.59;5036768;28;19917;-47
2021/12/19 09:27:41;;;;;;;;;;;;;;;17.49;51.41;103168.63;5043219;28;19983;-48
2021/12/19 09:30:07;;;;;;;;;;;;;;;17.51;51.68;103163.16;5043207;28;19981;-45
2021/12/19 09:32:32;;;;;;;;;;;;;;;17.54;51.60;103172.81;5043042;28;19917;-48
2021/12/19 09:34:57;;;;;;;;;;;;;;;17.53;51.62;103168.41;5041670;28;19965;-49
2021/12/19 09:37:22;;;;;;;;;;;;;;;17.55;51.62;103169.19;5042521;28;19924;-48
2021/12/19 09:39:50;;;;;;;;;;;;;;;17.56;51.62;103179.84;5043248;28;19913;-46
2021/12/19 09:42:17;;;;;;;;;;;;;;;17.57;51.60;103175.31;5043228;28;19921;-46
2021/12/19 09:44:42;;;;;;;;;;;;;;;17.58;51.56;103166.28;5030097;28;19924;-43
2021/12/19 09:47:08;;;;;;;;;;;;;;;17.58;51.59;103174.34;5038491;28;19913;-47
2021/12/19 09:49:34;;;;;;;;;;;;;;;17.59;51.51;103176.09;5034530;28;19958;-51
2021/12/19 09:52:01;;;;;;;;;;;;;;;17.61;51.53;103176.81;5034488;28;20321;-46
2021/12/19 09:54:26;;;;;;;;;;;;;;;17.61;51.48;103171.44;5039346;28;19960;-45
2021/12/19 09:56:51;;;;;;;;;;;;;;;17.63;51.33;103175.78;5039704;28;19936;-46
2021/12/19 09:59:18;;;;;;;;;;;;;;;17.64;51.40;103165.88;5054176;28;19944;-45
2021/12/19 10:01:43;;;;;;;;;;;;;;;17.65;51.30;103170.28;5039365;28;20293;-43
2021/12/19 10:04:27;;;;;;;;;;;;;;;17.64;51.40;103164.03;5037429;28;20358;-43
2021/12/19 10:07:11;;;;;;;;;;;;;;;17.56;51.32;103146.69;5039023;28;19921;-47
2021/12/19 10:10:00;;;;;;;;;;;;;;;17.68;51.19;103162.00;5035284;28;19967;-44
2021/12/19 10:15:01;;;;;;;;;;;;;;;17.71;51.36;103149.19;5043842;28;19921;-50
2021/12/19 10:17:26;;;;;;;;;;;;;;;17.74;51.18;103150.84;5037220;28;19960;-42
2021/12/19 10:19:52;;;;;;;;;;;;;;;17.76;51.03;103151.59;5054138;28;19913;-46
2021/12/19 10:22:31;;;;;;;;;;;;;;;17.77;51.12;103137.19;5035532;28;19947;-46
2021/12/19 10:24:58;;;;;;;;;;;;;;;17.79;51.11;103134.38;5039380;28;19928;-42
2021/12/19 10:27:33;;;;;;;;;;;;;;;17.80;50.92;103139.66;5035625;28;19927;-45
2021/12/19 10:29:59;;;;;;;;;;;;;;;17.82;51.03;103128.78;5036389;28;20342;-45
2021/12/19 10:32:24;;;;;;;;;;;;;;;17.83;51.05;103123.28;5037382;28;19914;-48
2021/12/19 10:34:49;;;;;;;;;;;;;;;17.85;50.89;103121.34;5038484;28;20003;-47
2021/12/19 10:37:32;;;;;;;;;;;;;;;17.87;50.99;103124.78;5040562;28;19920;-47
2021/12/19 10:40:01;;;;;;;;;;;;;;;17.89;50.57;103112.09;5037377;28;19913;-46
2021/12/19 10:42:27;;;;;;;;;;;;;;;17.89;50.46;103113.94;5039836;28;19921;-50
2021/12/19 10:47:37;;;;;;;;;;;;;;;17.90;50.74;103115.66;5040076;28;19940;-41
2021/12/19 10:50:03;;;;;;;;;;;;;;;17.91;50.58;103103.91;5033652;28;19913;-46
2021/12/19 10:52:32;;;;;;;;;;;;;;;17.91;50.57;103106.59;5040640;28;19924;-46
2021/12/19 10:55:01;;;;;;;;;;;;;;;17.91;50.35;103099.38;5040279;28;19917;-48
2021/12/19 10:57:30;;;;;;;;;;;;;;;17.93;50.72;103104.69;5039403;28;19925;-45
2021/12/19 10:59:55;;;;;;;;;;;;;;;17.93;50.62;103099.28;5039409;28;20069;-48
2021/12/19 11:02:33;;;;;;;;;;;;;;;17.94;50.67;103103.69;5039643;28;19917;-44
2021/12/19 11:04:58;;;;;;;;;;;;;;;17.95;50.77;103102.72;5040490;28;19937;-45
2021/12/19 11:07:23;;;;;;;;;;;;;;;17.96;50.48;103093.66;5049467;28;20341;-48
2021/12/19 11:09:49;;;;;;;;;;;;;;;17.97;50.69;103088.19;5037495;28;19920;-46
2021/12/19 11:12:14;;;;;;;;;;;;;;;17.99;50.36;103093.47;5055490;28;19944;-47
2021/12/19 11:14:47;;;;;;;;;;;;;;;18.01;50.47;103098.72;5040125;28;19929;-45
2021/12/19 11:17:16;;;;;;;;;;;;;;;18.03;50.44;103094.09;5037235;28;19913;-46
2021/12/19 11:19:41;;;;;;;;;;;;;;;18.03;50.37;103078.81;5038707;28;19993;-45
2021/12/19 11:22:09;;;;;;;;;;;;;;;18.04;50.53;103074.28;5038676;28;19913;-43
2021/12/19 11:24:34;;;;;;;;;;;;;;;18.06;50.70;103083.97;5036402;28;19968;-49
2021/12/19 11:27:02;;;;;;;;;;;;;;;18.07;50.37;103071.38;5036845;28;19982;-47
2021/12/19 11:29:28;;;;;;;;;;;;;;;18.07;50.50;103072.22;5038613;28;19921;-46
2021/12/19 11:31:57;;;;;;;;;;;;;;;18.08;50.32;103070.41;5037648;28;19917;-50
2021/12/19 11:34:39;;;;;;;;;;;;;;;18.09;50.45;103062.19;5040013;28;19913;-49
2021/12/19 11:37:08;;;;;;;;;;;;;;;18.09;50.26;103058.66;5037888;28;19939;-51
2021/12/19 11:39:35;;;;;;;;;;;;;;;18.10;50.29;103061.25;5051381;28;19925;-48
2021/12/19 11:42:05;;;;;;;;;;;;;;;18.11;50.21;103062.97;5038849;28;20456;-45
2021/12/19 11:44:31;;;;;;;;;;;;;;;18.11;50.42;103060.28;5035866;28;19973;-50
2021/12/19 11:46:59;;;;;;;;;;;;;;;18.12;50.36;103053.91;5051117;28;20157;-50
2021/12/19 11:49:27;;;;;;;;;;;;;;;18.13;50.27;103054.78;5038117;28;19917;-46
2021/12/19 11:52:11;;;;;;;;;;;;;;;18.12;50.30;103053.06;5039660;28;19976;-45
2021/12/19 11:54:36;;;;;;;;;;;;;;;18.13;50.37;103047.56;5036777;28;19980;-47
2021/12/19 11:57:08;;;;;;;;;;;;;;;18.14;50.30;103032.28;5039571;28;19917;-45
2021/12/19 11:59:33;;;;;;;;;;;;;;;18.15;50.45;103037.53;5038174;28;20016;-44
2021/12/19 12:02:17;;;;;;;;;;;;;;;18.15;50.42;103031.31;5039223;28;19965;-48
2021/12/19 12:04:42;;;;;;;;;;;;;;;18.16;50.46;103035.72;5037354;28;19913;-48
2021/12/19 12:07:08;;;;;;;;;;;;;;;18.17;50.42;103024.81;5040195;28;19920;-45
2021/12/19 12:09:39;;;;;;;;;;;;;;;18.18;50.43;103026.56;5035556;28;19921;-45
2021/12/19 12:12:08;;;;;;;;;;;;;;;18.20;50.32;103015.66;5043488;28;19952;-46
2021/12/19 12:14:36;;;;;;;;;;;;;;;18.20;50.12;103016.53;5036830;28;19928;-45
2021/12/19 12:17:12;;;;;;;;;;;;;;;18.22;50.30;102997.56;5039134;28;20209;-51
2021/12/19 12:19:41;;;;;;;;;;;;;;;18.23;50.13;103005.53;5051310;28;19941;-47
2021/12/19 12:22:21;;;;;;;;;;;;;;;18.24;50.16;102988.41;5038485;28;19918;-47
2021/12/19 12:25:01;;;;;;;;;;;;;;;18.26;50.04;102984.72;5025519;28;20512;-45
2021/12/19 12:27:43;;;;;;;;;;;;;;;18.26;49.82;102982.03;5025259;28;20005;-47
2021/12/19 12:30:10;;;;;;;;;;;;;;;18.27;50.01;102981.94;5042995;28;19956;-48
2021/12/19 12:32:35;;;;;;;;;;;;;;;18.28;49.79;102974.72;5044293;28;19913;-46
2021/12/19 12:35:01;;;;;;;;;;;;;;;18.29;49.67;102981.81;5043935;28;19999;-48
2021/12/19 12:37:27;;;;;;;;;;;;;;;18.28;49.53;102978.25;5045130;28;19921;-49
2021/12/19 12:40:17;;;;;;;;;;;;;;;18.29;49.74;102979.13;5045087;28;19917;-48
2021/12/19 12:42:57;;;;;;;;;;;;;;;18.30;49.85;102972.75;5044964;28;19913;-48
2021/12/19 12:45:24;;;;;;;;;;;;;;;18.30;49.85;102970.06;5045240;28;19936;-46
2021/12/19 12:47:49;;;;;;;;;;;;;;;18.30;49.66;102959.28;5059665;28;19913;-46
2021/12/19 12:50:14;;;;;;;;;;;;;;;18.31;49.73;102969.06;5044820;28;19913;-47
2021/12/19 12:52:39;;;;;;;;;;;;;;;18.30;49.69;102961.97;5044931;28;19919;-46
2021/12/19 12:55:05;;;;;;;;;;;;;;;18.30;49.53;102956.59;5044851;28;19963;-49
2021/12/19 12:57:30;;;;;;;;;;;;;;;18.30;49.53;102954.75;5044674;28;19927;-49
2021/12/19 12:59:55;;;;;;;;;;;;;;;18.31;49.49;102947.53;5044683;28;20108;-49
2021/12/19 13:02:28;;;;;;;;;;;;;;;18.30;49.50;102949.38;5043935;28;20297;-46
2021/12/19 13:04:55;;;;;;;;;;;;;;;18.30;49.47;102948.53;5044854;28;19913;-47
2021/12/19 13:07:22;;;;;;;;;;;;;;;18.29;49.33;102944.13;5044942;28;19921;-48
2021/12/19 13:09:50;;;;;;;;;;;;;;;18.30;49.63;102938.59;5044551;28;19914;-48
2021/12/19 13:12:16;;;;;;;;;;;;;;;18.30;49.70;102933.22;5044531;28;19913;-49
2021/12/19 13:14:46;;;;;;;;;;;;;;;18.29;49.43;102942.28;5044353;28;19921;-45
2021/12/19 13:17:12;;;;;;;;;;;;;;;18.29;49.40;102936.88;5043405;28;19921;-48
2021/12/19 13:19:39;;;;;;;;;;;;;;;18.30;49.59;102938.59;5043518;28;19913;-45
2021/12/19 13:22:05;;;;;;;;;;;;;;;18.30;49.46;102941.28;5044307;28;19919;-47
2021/12/19 13:24:32;;;;;;;;;;;;;;;18.30;49.44;102935.91;5044374;28;19917;-45
2021/12/19 13:27:04;;;;;;;;;;;;;;;18.31;49.63;102934.06;5044163;28;19913;-48
2021/12/19 13:29:30;;;;;;;;;;;;;;;18.31;49.57;102932.25;5043822;28;19952;-47
2021/12/19 13:32:14;;;;;;;;;;;;;;;18.31;49.63;102931.38;5043543;28;19923;-49
2021/12/19 13:34:39;;;;;;;;;;;;;;;18.31;49.47;102923.31;5044170;28;19913;-49
2021/12/19 13:37:05;;;;;;;;;;;;;;;18.31;49.52;102926.00;5044014;28;19913;-49